createdAt,value
2023-04-21T00:00:09.290Z,9.44
2023-04-21T00:02:39.562Z,9.43
2023-04-21T00:05:10.110Z,9.40
2023-04-21T00:07:38.618Z,9.37
2023-04-21T00:10:09.464Z,9.35
2023-04-21T00:12:38.040Z,9.38
2023-04-21T00:15:06.105Z,9.37
2023-04-21T00:17:34.248Z,9.35
2023-04-21T00:20:01.536Z,9.33
2023-04-21T00:22:29.093Z,9.32
2023-04-21T00:24:56.273Z,9.33
2023-04-21T00:27:23.487Z,9.35
2023-04-21T00:29:50.918Z,9.40
2023-04-21T00:32:18.045Z,9.39
2023-04-21T00:34:45.464Z,9.35
2023-04-21T00:37:12.604Z,9.34
2023-04-21T00:39:40.176Z,9.36
2023-04-21T00:42:07.523Z,9.37
2023-04-21T00:44:35.893Z,9.38
2023-04-21T00:47:04.461Z,9.42
2023-04-21T00:49:32.468Z,9.46
2023-04-21T00:52:00.107Z,9.48
2023-04-21T00:54:27.258Z,9.45
2023-04-21T00:56:54.816Z,9.40
2023-04-21T00:59:22.186Z,9.38
2023-04-21T01:01:49.533Z,9.36
2023-04-21T01:04:16.951Z,9.37
2023-04-21T01:06:44.452Z,9.35
2023-04-21T01:09:14.661Z,9.33
2023-04-21T01:11:41.744Z,9.29
2023-04-21T01:14:09.103Z,9.28
2023-04-21T01:16:39.418Z,9.26
2023-04-21T01:19:07.357Z,9.26
2023-04-21T01:21:41.263Z,9.25
2023-04-21T01:24:08.456Z,9.27
2023-04-21T01:26:35.768Z,9.28
2023-04-21T01:29:03.127Z,9.32
2023-04-21T01:31:32.285Z,9.35
2023-04-21T01:34:03.878Z,9.33
2023-04-21T01:36:31.541Z,9.32
2023-04-21T01:38:58.787Z,9.32
2023-04-21T01:41:26.063Z,9.33
2023-04-21T01:43:54.833Z,9.33
2023-04-21T01:46:24.458Z,9.35
2023-04-21T01:48:51.695Z,9.39
2023-04-21T01:51:18.946Z,9.40
2023-04-21T01:53:46.295Z,9.41
2023-04-21T01:56:14.779Z,9.41
2023-04-21T01:58:41.960Z,9.35
2023-04-21T02:01:09.183Z,9.32
2023-04-21T02:03:36.918Z,9.31
2023-04-21T02:06:05.559Z,9.30
2023-04-21T02:08:33.393Z,9.32
2023-04-21T02:11:01.465Z,9.35
2023-04-21T02:13:29.235Z,9.37
2023-04-21T02:16:09.642Z,9.42
2023-04-21T02:18:41.040Z,9.43
2023-04-21T02:21:08.222Z,9.37
2023-04-21T02:23:35.557Z,9.31
2023-04-21T02:26:02.930Z,9.26
2023-04-21T02:28:33.324Z,9.25
2023-04-21T02:31:00.523Z,9.25
2023-04-21T02:33:27.996Z,9.25
2023-04-21T02:35:55.589Z,9.25
2023-04-21T02:38:24.692Z,9.26
2023-04-21T02:40:51.936Z,9.24
2023-04-21T02:43:19.918Z,9.23
2023-04-21T02:45:49.210Z,9.20
2023-04-21T02:48:22.397Z,9.15
2023-04-21T02:50:52.824Z,9.10
2023-04-21T02:53:20.614Z,9.08
2023-04-21T02:55:47.756Z,9.09
2023-04-21T02:58:16.118Z,9.05
2023-04-21T03:00:43.500Z,8.99
2023-04-21T03:03:11.061Z,8.97
2023-04-21T03:05:39.203Z,8.95
2023-04-21T03:08:06.360Z,8.93
2023-04-21T03:10:37.342Z,8.93
2023-04-21T03:13:04.438Z,8.92
2023-04-21T03:15:32.938Z,8.89
2023-04-21T03:18:02.457Z,8.89
2023-04-21T03:20:30.087Z,8.91
2023-04-21T03:22:59.191Z,8.92
2023-04-21T03:25:29.314Z,8.91
2023-04-21T03:27:56.349Z,8.88
2023-04-21T03:30:25.963Z,8.87
2023-04-21T03:32:55.114Z,8.86
2023-04-21T03:35:22.556Z,8.83
2023-04-21T03:37:49.967Z,8.81
2023-04-21T03:40:17.120Z,8.80
2023-04-21T03:42:44.375Z,8.78
2023-04-21T03:45:13.733Z,8.74
2023-04-21T03:47:41.200Z,8.71
2023-04-21T03:50:09.112Z,8.70
2023-04-21T03:52:37.380Z,8.71
2023-04-21T03:55:08.634Z,8.69
2023-04-21T03:57:36.686Z,8.69
2023-04-21T04:00:05.171Z,8.67
2023-04-21T04:02:40.513Z,8.65
2023-04-21T04:05:08.373Z,8.66
2023-04-21T04:07:35.897Z,8.66
2023-04-21T04:10:03.907Z,8.65
2023-04-21T04:12:31.707Z,8.66
2023-04-21T04:14:58.845Z,8.68
2023-04-21T04:17:26.501Z,8.72
2023-04-21T04:19:53.839Z,8.75
2023-04-21T04:22:21.187Z,8.75
2023-04-21T04:24:48.288Z,8.75
2023-04-21T04:27:16.304Z,8.76
2023-04-21T04:29:46.735Z,8.76
2023-04-21T04:32:14.906Z,8.75
2023-04-21T04:34:42.069Z,8.72
2023-04-21T04:37:10.744Z,8.69
2023-04-21T04:39:38.686Z,8.67
2023-04-21T04:42:09.434Z,8.65
2023-04-21T04:44:36.651Z,8.63
2023-04-21T04:47:04.875Z,8.60
2023-04-21T04:49:33.458Z,8.59
2023-04-21T04:52:01.653Z,8.59
2023-04-21T04:54:30.829Z,8.61
2023-04-21T04:56:59.186Z,8.63
2023-04-21T04:59:27.952Z,8.63
2023-04-21T05:02:00.249Z,8.66
2023-04-21T05:04:29.193Z,8.67
2023-04-21T05:06:56.846Z,8.69
2023-04-21T05:09:25.628Z,8.69
2023-04-21T05:11:52.860Z,8.72
2023-04-21T05:14:20.663Z,8.74
2023-04-21T05:16:48.314Z,8.76
2023-04-21T05:19:18.499Z,8.75
2023-04-21T05:21:45.790Z,8.75
2023-04-21T05:24:13.215Z,8.77
2023-04-21T05:26:44.898Z,8.76
2023-04-21T05:29:12.112Z,8.73
2023-04-21T05:31:39.880Z,8.75
2023-04-21T05:34:07.491Z,8.77
2023-04-21T05:36:36.490Z,8.78
2023-04-21T05:39:03.896Z,8.79
2023-04-21T05:41:31.294Z,8.78
2023-04-21T05:43:58.910Z,8.81
2023-04-21T05:46:26.318Z,8.81
2023-04-21T05:48:54.023Z,8.84
2023-04-21T05:51:22.952Z,8.86
2023-04-21T05:53:50.056Z,8.94
2023-04-21T05:56:18.336Z,9.02
2023-04-21T05:58:46.001Z,9.12
2023-04-21T06:01:14.937Z,9.16
2023-04-21T06:03:42.846Z,9.20
2023-04-21T06:06:11.245Z,9.27
2023-04-21T06:08:39.037Z,9.32
2023-04-21T06:11:06.569Z,9.37
2023-04-21T06:13:34.755Z,9.41
2023-04-21T06:16:02.616Z,9.48
2023-04-21T06:18:30.673Z,9.53
2023-04-21T06:20:58.165Z,9.55
2023-04-21T06:23:25.752Z,9.58
2023-04-21T06:26:00.452Z,9.62
2023-04-21T06:28:28.940Z,9.65
2023-04-21T06:30:56.452Z,9.68
2023-04-21T06:33:23.945Z,9.66
2023-04-21T06:35:51.258Z,9.66
2023-04-21T06:38:19.124Z,9.67
2023-04-21T06:40:46.791Z,9.67
2023-04-21T06:43:14.348Z,9.69
2023-04-21T06:45:42.623Z,9.71
2023-04-21T06:48:10.659Z,9.73
2023-04-21T06:50:38.360Z,9.75
2023-04-21T06:53:06.088Z,9.78
2023-04-21T06:55:34.712Z,9.85
2023-04-21T06:58:02.002Z,9.90
2023-04-21T07:00:29.844Z,9.91
2023-04-21T07:02:57.859Z,9.92
2023-04-21T07:05:25.594Z,9.97
2023-04-21T07:07:56.524Z,10.02
2023-04-21T07:10:26.685Z,10.06
2023-04-21T07:12:54.921Z,10.07
2023-04-21T07:15:26.916Z,10.05
2023-04-21T07:17:54.545Z,10.07
2023-04-21T07:20:23.099Z,10.11
2023-04-21T07:22:50.974Z,10.13
2023-04-21T07:25:19.297Z,10.13
2023-04-21T07:27:49.109Z,10.12
2023-04-21T07:30:16.823Z,10.14
2023-04-21T07:32:45.946Z,10.18
2023-04-21T07:35:13.782Z,10.20
2023-04-21T07:37:41.223Z,10.22
2023-04-21T07:40:11.562Z,10.24
2023-04-21T07:42:39.027Z,10.29
2023-04-21T07:45:07.096Z,10.44
2023-04-21T07:47:34.607Z,10.53
2023-04-21T07:50:02.718Z,10.63
2023-04-21T07:52:31.302Z,10.68
2023-04-21T07:54:58.650Z,10.76
2023-04-21T07:57:27.049Z,10.84
2023-04-21T07:59:55.818Z,10.92
2023-04-21T08:02:23.785Z,11.01
2023-04-21T08:04:53.859Z,11.08
2023-04-21T08:07:22.575Z,11.13
2023-04-21T08:09:50.468Z,11.14
2023-04-21T08:12:18.946Z,11.12
2023-04-21T08:14:46.791Z,11.06
2023-04-21T08:17:14.777Z,11.06
2023-04-21T08:19:43.365Z,11.04
2023-04-21T08:22:11.356Z,10.98
2023-04-21T08:24:39.326Z,10.99
2023-04-21T08:27:06.466Z,11.03
2023-04-21T08:29:36.500Z,11.05
2023-04-21T08:32:04.390Z,11.09
2023-04-21T08:34:32.245Z,11.10
2023-04-21T08:37:02.559Z,11.04
2023-04-21T08:39:30.596Z,10.99
2023-04-21T08:42:01.225Z,10.95
2023-04-21T08:44:31.549Z,10.98
2023-04-21T08:47:01.271Z,10.94
2023-04-21T08:49:29.448Z,10.89
2023-04-21T08:51:57.302Z,10.89
2023-04-21T08:54:28.045Z,10.83
2023-04-21T08:57:08.044Z,10.79
2023-04-21T08:59:44.453Z,10.73
2023-04-21T09:02:16.525Z,10.70
2023-04-21T09:04:45.859Z,10.69
2023-04-21T09:07:30.787Z,10.68
2023-04-21T09:09:59.779Z,10.71
2023-04-21T09:12:45.868Z,10.70
2023-04-21T09:15:13.351Z,10.72
2023-04-21T09:17:41.901Z,10.78
2023-04-21T09:20:17.759Z,10.89
2023-04-21T09:22:47.704Z,10.97
2023-04-21T09:25:22.006Z,11.02
2023-04-21T09:27:49.508Z,11.08
2023-04-21T09:30:20.242Z,11.05
2023-04-21T09:32:48.000Z,10.99
2023-04-21T09:35:15.761Z,10.92
2023-04-21T09:37:43.787Z,10.86
2023-04-21T09:40:15.064Z,10.86
2023-04-21T09:42:44.457Z,10.92
2023-04-21T09:45:28.908Z,10.99
2023-04-21T09:48:01.498Z,11.05
2023-04-21T09:50:44.764Z,11.08
2023-04-21T09:53:17.153Z,11.07
2023-04-21T09:55:46.078Z,11.05
2023-04-21T09:58:15.105Z,11.01
2023-04-21T10:00:42.632Z,11.00
2023-04-21T10:03:11.150Z,10.99
2023-04-21T10:05:42.160Z,10.98
2023-04-21T10:08:11.892Z,10.98
2023-04-21T10:10:39.810Z,10.99
2023-04-21T10:13:14.387Z,11.01
2023-04-21T10:15:42.054Z,11.07
2023-04-21T10:18:21.475Z,11.11
2023-04-21T10:20:55.382Z,11.20
2023-04-21T10:23:31.047Z,11.24
2023-04-21T10:26:06.280Z,11.22
2023-04-21T10:28:51.964Z,11.21
2023-04-21T10:31:27.235Z,11.18
2023-04-21T10:34:07.308Z,11.14
2023-04-21T10:36:53.733Z,11.10
2023-04-21T10:39:39.641Z,11.09
2023-04-21T10:42:13.258Z,11.13
2023-04-21T10:44:44.461Z,11.18
2023-04-21T10:47:13.120Z,11.21
2023-04-21T10:49:40.624Z,11.26
2023-04-21T10:52:10.432Z,11.29
2023-04-21T10:54:44.864Z,11.29
2023-04-21T10:57:14.350Z,11.23
2023-04-21T10:59:41.914Z,11.22
2023-04-21T11:02:16.289Z,11.24
2023-04-21T11:04:50.107Z,11.23
2023-04-21T11:07:25.258Z,11.23
2023-04-21T11:10:03.557Z,11.24
2023-04-21T11:12:39.006Z,11.26
2023-04-21T11:15:08.361Z,11.27
2023-04-21T11:17:37.819Z,11.27
2023-04-21T11:20:07.029Z,11.29
2023-04-21T11:22:36.303Z,11.31
2023-04-21T11:25:05.387Z,11.36
2023-04-21T11:27:33.568Z,11.37
2023-04-21T11:30:02.970Z,11.35
2023-04-21T11:32:30.672Z,11.34
2023-04-21T11:34:57.995Z,11.25
2023-04-21T11:37:29.848Z,11.13
2023-04-21T11:39:59.357Z,11.07
2023-04-21T11:42:26.503Z,11.00
2023-04-21T11:44:55.397Z,10.97
2023-04-21T11:47:24.904Z,10.95
2023-04-21T11:49:57.060Z,10.89
2023-04-21T11:52:26.981Z,10.80
2023-04-21T11:54:56.755Z,10.76
2023-04-21T11:57:26.160Z,10.76
2023-04-21T11:59:53.559Z,10.74
2023-04-21T12:02:22.521Z,10.68
2023-04-21T12:05:07.176Z,10.65
2023-04-21T12:07:41.347Z,10.66
2023-04-21T12:10:12.530Z,10.61
2023-04-21T12:12:42.948Z,10.55
2023-04-21T12:15:11.389Z,10.51
2023-04-21T12:17:39.396Z,10.48
2023-04-21T12:20:08.019Z,10.48
2023-04-21T12:22:35.678Z,10.49
2023-04-21T12:25:02.857Z,10.56
2023-04-21T12:27:30.699Z,10.57
2023-04-21T12:29:59.901Z,10.56
2023-04-21T12:32:27.315Z,10.53
2023-04-21T12:34:54.635Z,10.51
2023-04-21T12:37:22.660Z,10.52
2023-04-21T12:39:50.071Z,10.56
2023-04-21T12:42:17.601Z,10.58
2023-04-21T12:44:44.915Z,10.58
2023-04-21T12:47:12.191Z,10.58
2023-04-21T12:49:41.507Z,10.58
2023-04-21T12:52:08.650Z,10.58
2023-04-21T12:54:36.207Z,10.60
2023-04-21T12:57:08.421Z,10.61
2023-04-21T12:59:35.654Z,10.62
2023-04-21T13:02:03.060Z,10.61
2023-04-21T13:04:31.743Z,10.61
2023-04-21T13:07:01.273Z,10.64
2023-04-21T13:09:29.910Z,10.67
2023-04-21T13:11:57.822Z,10.68
2023-04-21T13:14:25.763Z,10.67
2023-04-21T13:16:53.501Z,10.65
2023-04-21T13:19:21.030Z,10.65
2023-04-21T13:21:48.264Z,10.66
2023-04-21T13:24:15.819Z,10.67
2023-04-21T13:26:43.155Z,10.67
2023-04-21T13:29:10.535Z,10.67
2023-04-21T13:31:38.038Z,10.67
2023-04-21T13:34:05.756Z,10.67
2023-04-21T13:36:33.015Z,10.68
2023-04-21T13:39:01.057Z,10.70
2023-04-21T13:41:28.463Z,10.70
2023-04-21T13:43:56.246Z,10.72
2023-04-21T13:46:25.531Z,10.73
2023-04-21T13:48:53.477Z,10.74
2023-04-21T13:51:20.914Z,10.74
2023-04-21T13:53:48.827Z,10.75
2023-04-21T13:56:17.296Z,10.77
2023-04-21T13:58:44.422Z,10.75
2023-04-21T14:01:13.802Z,10.71
2023-04-21T14:03:41.920Z,10.66
2023-04-21T14:06:09.235Z,10.63
2023-04-21T14:08:36.747Z,10.63
2023-04-21T14:11:06.297Z,10.65
2023-04-21T14:13:39.399Z,10.66
2023-04-21T14:16:07.156Z,10.67
2023-04-21T14:18:34.502Z,10.71
2023-04-21T14:21:02.075Z,10.76
2023-04-21T14:23:30.563Z,10.78
2023-04-21T14:25:59.157Z,10.76
2023-04-21T14:28:26.314Z,10.77
2023-04-21T14:30:53.975Z,10.79
2023-04-21T14:33:21.376Z,10.81
2023-04-21T14:35:48.771Z,10.79
2023-04-21T14:38:16.170Z,10.79
2023-04-21T14:40:45.394Z,10.79
2023-04-21T14:43:12.889Z,10.78
2023-04-21T14:45:40.667Z,10.77
2023-04-21T14:48:08.127Z,10.76
2023-04-21T14:50:35.610Z,10.77
2023-04-21T14:53:03.060Z,10.78
2023-04-21T14:55:30.713Z,10.81
2023-04-21T14:57:59.412Z,10.85
2023-04-21T15:00:27.462Z,10.85
2023-04-21T15:02:55.186Z,10.85
2023-04-21T15:05:23.396Z,10.80
2023-04-21T15:07:51.248Z,10.78
2023-04-21T15:10:18.853Z,10.79
2023-04-21T15:12:47.175Z,10.81
2023-04-21T15:15:14.500Z,10.80
2023-04-21T15:17:42.074Z,10.79
2023-04-21T15:20:10.416Z,10.78
2023-04-21T15:22:38.029Z,10.79
2023-04-21T15:25:06.301Z,10.81
2023-04-21T15:27:34.475Z,10.81
2023-04-21T15:30:03.919Z,10.78
2023-04-21T15:32:31.673Z,10.75
2023-04-21T15:35:01.178Z,10.73
2023-04-21T15:37:28.500Z,10.71
2023-04-21T15:39:56.480Z,10.72
2023-04-21T15:42:24.033Z,10.73
2023-04-21T15:44:53.337Z,10.72
2023-04-21T15:47:23.282Z,10.72
2023-04-21T15:49:50.668Z,10.70
2023-04-21T15:52:21.610Z,10.68
2023-04-21T15:54:50.173Z,10.65
2023-04-21T15:57:17.546Z,10.60
2023-04-21T15:59:45.301Z,10.57
2023-04-21T16:02:12.860Z,10.54
2023-04-21T16:04:41.345Z,10.51
2023-04-21T16:07:09.432Z,10.50
2023-04-21T16:09:40.126Z,10.47
2023-04-21T16:12:09.973Z,10.44
2023-04-21T16:14:53.472Z,10.41
2023-04-21T16:17:26.621Z,10.40
2023-04-21T16:19:54.197Z,10.41
2023-04-21T16:22:21.915Z,10.40
2023-04-21T16:24:49.889Z,10.36
2023-04-21T16:27:17.373Z,10.32
2023-04-21T16:29:45.008Z,10.30
2023-04-21T16:32:12.400Z,10.28
2023-04-21T16:34:40.977Z,10.26
2023-04-21T16:37:08.699Z,10.25
2023-04-21T16:39:37.166Z,10.22
2023-04-21T16:42:04.620Z,10.21
2023-04-21T16:44:32.129Z,10.22
2023-04-21T16:47:00.120Z,10.22
2023-04-21T16:49:29.786Z,10.20
2023-04-21T16:51:57.482Z,10.19
2023-04-21T16:54:26.744Z,10.18
2023-04-21T16:56:53.950Z,10.18
2023-04-21T16:59:23.731Z,10.18
2023-04-21T17:01:50.898Z,10.15
2023-04-21T17:04:18.568Z,10.14
2023-04-21T17:06:47.802Z,10.11
2023-04-21T17:09:16.649Z,10.10
2023-04-21T17:11:45.730Z,10.08
2023-04-21T17:14:13.803Z,10.07
2023-04-21T17:16:41.231Z,10.06
2023-04-21T17:19:08.952Z,10.04
2023-04-21T17:21:36.281Z,10.00
2023-04-21T17:24:03.769Z,9.98
2023-04-21T17:26:31.290Z,9.97
2023-04-21T17:28:59.149Z,9.97
2023-04-21T17:31:28.937Z,9.96
2023-04-21T17:33:57.040Z,9.94
2023-04-21T17:36:29.039Z,9.93
2023-04-21T17:38:57.909Z,9.91
2023-04-21T17:41:25.544Z,9.90
2023-04-21T17:43:54.597Z,9.87
2023-04-21T17:46:24.301Z,9.84
2023-04-21T17:48:52.582Z,9.83
2023-04-21T17:51:20.391Z,9.81
2023-04-21T17:53:49.749Z,9.79
2023-04-21T17:56:18.378Z,9.78
2023-04-21T17:58:46.990Z,9.74
2023-04-21T18:01:15.120Z,9.70
2023-04-21T18:03:42.998Z,9.69
2023-04-21T18:06:11.422Z,9.68
2023-04-21T18:08:39.046Z,9.66
2023-04-21T18:11:07.345Z,9.64
2023-04-21T18:13:35.957Z,9.62
2023-04-21T18:16:03.527Z,9.62
2023-04-21T18:18:31.026Z,9.60
2023-04-21T18:20:59.303Z,9.60
2023-04-21T18:23:26.650Z,9.59
2023-04-21T18:25:54.253Z,9.58
2023-04-21T18:28:21.747Z,9.56
2023-04-21T18:30:49.739Z,9.54
2023-04-21T18:33:18.666Z,9.53
2023-04-21T18:35:46.568Z,9.52
2023-04-21T18:38:14.393Z,9.52
2023-04-21T18:40:41.626Z,9.51
2023-04-21T18:43:10.501Z,9.48
2023-04-21T18:45:38.667Z,9.46
2023-04-21T18:48:06.321Z,9.45
2023-04-21T18:50:38.954Z,9.44
2023-04-21T18:53:07.095Z,9.43
2023-04-21T18:55:35.682Z,9.41
2023-04-21T18:58:03.340Z,9.39
2023-04-21T19:00:31.507Z,9.37
2023-04-21T19:03:01.019Z,9.36
2023-04-21T19:05:31.107Z,9.35
2023-04-21T19:08:00.043Z,9.34
2023-04-21T19:10:28.102Z,9.31
2023-04-21T19:12:56.389Z,9.28
2023-04-21T19:15:23.747Z,9.26
2023-04-21T19:17:51.903Z,9.24
2023-04-21T19:20:20.285Z,9.24
2023-04-21T19:22:47.487Z,9.22
2023-04-21T19:25:15.193Z,9.19
2023-04-21T19:27:43.467Z,9.17
2023-04-21T19:30:11.953Z,9.15
2023-04-21T19:32:41.075Z,9.14
2023-04-21T19:35:08.968Z,9.13
2023-04-21T19:37:36.484Z,9.12
2023-04-21T19:40:05.077Z,9.10
2023-04-21T19:42:32.536Z,9.10
2023-04-21T19:44:59.779Z,9.07
2023-04-21T19:47:27.026Z,9.06
2023-04-21T19:49:54.077Z,9.07
2023-04-21T19:52:21.215Z,9.07
2023-04-21T19:54:48.668Z,9.06
2023-04-21T19:57:16.126Z,9.05
2023-04-21T19:59:43.484Z,9.03
2023-04-21T20:02:10.696Z,9.03
2023-04-21T20:04:38.919Z,9.05
2023-04-21T20:07:06.672Z,9.05
2023-04-21T20:09:34.856Z,9.04
2023-04-21T20:12:02.116Z,9.02
2023-04-21T20:14:29.553Z,8.99
2023-04-21T20:16:57.430Z,9.01
2023-04-21T20:19:26.681Z,9.01
2023-04-21T20:21:53.879Z,9.01
2023-04-21T20:24:21.122Z,9.02
2023-04-21T20:26:49.200Z,9.00
2023-04-21T20:29:16.346Z,8.99
2023-04-21T20:31:45.241Z,8.97
2023-04-21T20:34:12.793Z,9.00
2023-04-21T20:36:40.267Z,9.01
2023-04-21T20:39:08.083Z,9.02
2023-04-21T20:41:35.210Z,9.01
2023-04-21T20:44:03.542Z,9.02
2023-04-21T20:46:31.894Z,9.02
2023-04-21T20:48:59.289Z,9.03
2023-04-21T20:51:27.137Z,9.04
2023-04-21T20:53:54.327Z,9.04
2023-04-21T20:56:21.552Z,9.03
2023-04-21T20:58:48.797Z,9.01
2023-04-21T21:01:16.302Z,9.00
2023-04-21T21:03:45.627Z,9.02
2023-04-21T21:06:14.136Z,9.02
2023-04-21T21:08:41.619Z,9.01
2023-04-21T21:11:08.849Z,9.00
2023-04-21T21:13:36.195Z,8.99
2023-04-21T21:16:03.662Z,8.98
2023-04-21T21:18:34.180Z,8.99
2023-04-21T21:21:01.536Z,9.00
2023-04-21T21:23:29.115Z,9.00
2023-04-21T21:25:58.095Z,8.99
2023-04-21T21:28:25.243Z,8.98
2023-04-21T21:30:52.283Z,8.99
2023-04-21T21:33:19.849Z,8.99
2023-04-21T21:35:47.123Z,8.99
2023-04-21T21:38:14.973Z,8.98
2023-04-21T21:40:42.122Z,8.98
2023-04-21T21:43:10.492Z,8.97
2023-04-21T21:45:37.749Z,9.00
2023-04-21T21:48:04.909Z,9.03
2023-04-21T21:50:32.452Z,9.04
2023-04-21T21:53:00.133Z,9.05
2023-04-21T21:55:27.265Z,9.04
2023-04-21T21:57:54.312Z,9.02
2023-04-21T22:00:21.393Z,8.98
2023-04-21T22:02:48.611Z,8.98
2023-04-21T22:05:15.859Z,8.98
2023-04-21T22:07:43.109Z,8.98
2023-04-21T22:10:11.285Z,8.95
2023-04-21T22:12:38.446Z,8.91
2023-04-21T22:15:06.301Z,8.87
2023-04-21T22:17:37.551Z,8.86
2023-04-21T22:20:06.989Z,8.86
2023-04-21T22:22:35.239Z,8.85
2023-04-21T22:25:02.582Z,8.82
2023-04-21T22:27:32.802Z,8.80
2023-04-21T22:30:03.268Z,8.79
2023-04-21T22:32:31.833Z,8.80
2023-04-21T22:34:59.472Z,8.81
2023-04-21T22:37:27.240Z,8.79
2023-04-21T22:39:56.540Z,8.76
2023-04-21T22:42:23.799Z,8.73
2023-04-21T22:44:51.149Z,8.71
2023-04-21T22:47:18.334Z,8.71
2023-04-21T22:49:45.671Z,8.71
2023-04-21T22:52:12.809Z,8.70
2023-04-21T22:54:40.871Z,8.69
2023-04-21T22:57:08.455Z,8.66
2023-04-21T22:59:35.926Z,8.65
2023-04-21T23:02:04.908Z,8.65
2023-04-21T23:04:32.337Z,8.64
2023-04-21T23:06:59.500Z,8.62
2023-04-21T23:09:27.247Z,8.61
2023-04-21T23:11:54.408Z,8.58
2023-04-21T23:14:21.673Z,8.55
2023-04-21T23:16:48.767Z,8.55
2023-04-21T23:19:16.050Z,8.52
2023-04-21T23:21:43.235Z,8.49
2023-04-21T23:24:10.971Z,8.46
2023-04-21T23:26:38.431Z,8.44
2023-04-21T23:29:05.673Z,8.43
2023-04-21T23:31:34.147Z,8.42
2023-04-21T23:34:01.509Z,8.42
2023-04-21T23:36:28.758Z,8.41
2023-04-21T23:38:56.037Z,8.39
2023-04-21T23:41:23.121Z,8.38
2023-04-21T23:43:50.285Z,8.38
2023-04-21T23:46:17.564Z,8.37
2023-04-21T23:48:44.927Z,8.37
2023-04-21T23:51:12.132Z,8.34
2023-04-21T23:53:39.433Z,8.31
2023-04-21T23:56:07.113Z,8.28
2023-04-21T23:58:34.128Z,8.27
